Time;durP1;ratioP1;P1;durP2;ratioP2;P2;SDS_P1;SDS_P2;PMS_P1;PMS_P2;Temp;Humidity;BMP_temperature;BMP_pressure;BME280_temperature;BME280_humidity;BME280_pressure;Samples;Min_cycle;Max_cycle;Signal;HPM_P1;HPM_P2
2024/03/29 00:01:04;;;;;;;;;;;;;;;19.80;40.45;100358.77;102723;1291;62512;-82
2024/03/29 00:03:30;;;;;;;;;;;;;;;19.79;40.42;100352.91;102668;1292;63526;-79
2024/03/29 00:05:55;;;;;;;;;;;;;;;19.80;40.57;100356.84;102651;1291;62213;-80
2024/03/29 00:08:21;;;;;;;;;;;;;;;19.80;40.49;100353.97;102692;1291;62586;-80
2024/03/29 00:10:47;;;;;;;;;;;;;;;19.79;40.48;100350.23;102705;1295;63247;-82
2024/03/29 00:13:13;;;;;;;;;;;;;;;19.79;40.57;100349.00;102822;1291;62717;-82
2024/03/29 00:15:38;;;;;;;;;;;;;;;19.79;40.41;100345.95;102680;1291;62269;-80
2024/03/29 00:18:04;;;;;;;;;;;;;;;19.79;40.52;100349.73;102719;1291;62136;-80
2024/03/29 00:20:29;;;;;;;;;;;;;;;19.79;40.46;100349.37;102668;1291;63790;-80
2024/03/29 00:22:55;;;;;;;;;;;;;;;19.79;40.42;100347.59;102658;1292;62719;-80
2024/03/29 00:25:21;;;;;;;;;;;;;;;19.79;40.50;100351.54;102745;1294;62169;-80
2024/03/29 00:27:48;;;;;;;;;;;;;;;19.79;40.45;100349.95;102667;1291;62238;-83
2024/03/29 00:30:14;;;;;;;;;;;;;;;19.79;40.55;100350.65;102760;1291;62325;-80
2024/03/29 00:32:39;;;;;;;;;;;;;;;19.79;40.45;100353.14;102712;1290;62152;-80
2024/03/29 00:35:05;;;;;;;;;;;;;;;19.79;40.54;100353.67;102702;1297;75134;-81
2024/03/29 00:37:31;;;;;;;;;;;;;;;19.78;40.51;100356.92;102667;1291;62203;-82
2024/03/29 00:39:56;;;;;;;;;;;;;;;19.79;40.52;100360.29;102712;1292;62633;-81
2024/03/29 00:42:24;;;;;;;;;;;;;;;19.78;40.56;100362.83;102777;1291;63471;-80
2024/03/29 00:44:50;;;;;;;;;;;;;;;19.78;40.57;100371.56;102678;1296;62269;-79
2024/03/29 00:47:15;;;;;;;;;;;;;;;19.78;40.58;100376.94;102684;1291;62268;-82
2024/03/29 00:49:41;;;;;;;;;;;;;;;19.78;40.41;100382.30;102766;1290;63360;-80
2024/03/29 00:52:07;;;;;;;;;;;;;;;19.78;40.46;100394.81;102720;1291;63251;-81
2024/03/29 00:54:32;;;;;;;;;;;;;;;19.78;40.50;100408.20;102631;1291;72389;-79
2024/03/29 00:56:58;;;;;;;;;;;;;;;19.78;40.54;100417.13;102645;1297;62223;-79
2024/03/29 00:59:24;;;;;;;;;;;;;;;19.78;40.34;100421.95;102703;1291;63414;-80
2024/03/29 01:01:50;;;;;;;;;;;;;;;19.78;40.56;100423.38;102708;1294;62616;-81
2024/03/29 01:04:16;;;;;;;;;;;;;;;19.78;40.50;100423.21;102750;1296;62244;-81
2024/03/29 01:06:44;;;;;;;;;;;;;;;19.78;40.57;100419.84;102708;1295;62556;-82
2024/03/29 01:09:11;;;;;;;;;;;;;;;19.78;40.49;100423.75;102765;1291;62181;-80
2024/03/29 01:11:39;;;;;;;;;;;;;;;19.78;40.41;100431.43;102751;1292;62146;-81
2024/03/29 01:14:05;;;;;;;;;;;;;;;19.77;40.50;100433.95;102736;1297;73888;-80
2024/03/29 01:16:31;;;;;;;;;;;;;;;19.77;40.62;100432.52;102647;1291;63491;-82
2024/03/29 01:18:59;;;;;;;;;;;;;;;19.77;40.61;100436.27;102716;1291;62151;-83
2024/03/29 01:21:28;;;;;;;;;;;;;;;19.78;40.65;100435.73;102685;1291;62136;-80
2024/03/29 01:23:53;;;;;;;;;;;;;;;19.78;40.60;100437.14;102706;1294;71501;-81
2024/03/29 01:26:19;;;;;;;;;;;;;;;19.78;40.57;100435.19;102677;1297;62213;-80
2024/03/29 01:28:45;;;;;;;;;;;;;;;19.77;40.51;100435.37;102643;1290;62330;-81
2024/03/29 01:31:11;;;;;;;;;;;;;;;19.78;40.47;100436.05;102728;1291;62636;-81
2024/03/29 01:33:37;;;;;;;;;;;;;;;19.77;40.63;100433.05;102793;1290;62179;-80
2024/03/29 01:36:04;;;;;;;;;;;;;;;19.77;40.54;100435.20;102691;1297;62242;-80
2024/03/29 01:38:30;;;;;;;;;;;;;;;19.77;40.44;100431.81;102693;1292;63702;-80
2024/03/29 01:40:55;;;;;;;;;;;;;;;19.77;40.60;100434.32;102679;1295;63538;-81
2024/03/29 01:43:21;;;;;;;;;;;;;;;19.77;40.59;100433.25;102760;1291;62083;-80
2024/03/29 01:45:47;;;;;;;;;;;;;;;19.77;40.60;100431.84;102699;1292;62178;-81
2024/03/29 01:48:13;;;;;;;;;;;;;;;19.77;40.49;100430.59;102767;1292;63343;-81
2024/03/29 01:50:39;;;;;;;;;;;;;;;19.77;40.64;100430.92;102772;1290;62204;-81
2024/03/29 01:53:05;;;;;;;;;;;;;;;19.77;40.51;100433.27;102786;1291;62206;-80
2024/03/29 01:55:30;;;;;;;;;;;;;;;19.77;40.62;100436.46;102726;1291;62279;-81
2024/03/29 01:57:56;;;;;;;;;;;;;;;19.77;40.45;100439.16;102787;1291;63476;-82
2024/03/29 02:00:22;;;;;;;;;;;;;;;19.77;40.56;100442.19;102663;1291;75395;-82
2024/03/29 02:02:47;;;;;;;;;;;;;;;19.77;40.66;100443.78;102699;1291;62186;-80
2024/03/29 02:05:13;;;;;;;;;;;;;;;19.77;40.45;100444.86;102712;1291;62284;-80
2024/03/29 02:07:39;;;;;;;;;;;;;;;19.77;40.53;100445.75;102644;1292;63316;-82
2024/03/29 02:10:07;;;;;;;;;;;;;;;19.77;40.43;100446.64;102633;1291;62224;-82
2024/03/29 02:12:32;;;;;;;;;;;;;;;19.77;40.59;100450.58;102767;1294;62274;-80
2024/03/29 02:14:59;;;;;;;;;;;;;;;19.77;40.51;100448.98;102889;1291;63418;-81
2024/03/29 02:17:26;;;;;;;;;;;;;;;19.76;40.53;100448.27;102674;1295;63315;-80
2024/03/29 02:19:53;;;;;;;;;;;;;;;19.76;40.57;100450.81;102670;1290;62177;-80
2024/03/29 02:22:19;;;;;;;;;;;;;;;19.76;40.58;100455.23;102154;1291;769996;-81
2024/03/29 02:24:45;;;;;;;;;;;;;;;19.76;40.46;100453.83;102725;1290;62310;-80
2024/03/29 02:27:10;;;;;;;;;;;;;;;19.76;40.49;100457.80;102664;1297;62197;-81
2024/03/29 02:29:36;;;;;;;;;;;;;;;19.76;40.34;100458.67;102754;1291;62254;-80
2024/03/29 02:32:05;;;;;;;;;;;;;;;19.76;40.49;100458.49;102771;1290;75274;-80
2024/03/29 02:34:30;;;;;;;;;;;;;;;19.76;40.54;100459.59;102735;1291;62211;-81
2024/03/29 02:36:59;;;;;;;;;;;;;;;19.75;40.46;100461.55;102745;1291;63370;-82
2024/03/29 02:39:25;;;;;;;;;;;;;;;19.76;40.49;100464.39;102707;1291;72714;-81
2024/03/29 02:41:51;;;;;;;;;;;;;;;19.76;40.48;100466.90;102811;1291;75246;-80
2024/03/29 02:44:17;;;;;;;;;;;;;;;19.76;40.61;100466.73;102632;1297;62215;-81
2024/03/29 02:46:43;;;;;;;;;;;;;;;19.76;40.42;100466.91;102712;1290;62414;-80
2024/03/29 02:49:09;;;;;;;;;;;;;;;19.75;40.46;100465.30;102716;1291;63375;-80
2024/03/29 02:51:35;;;;;;;;;;;;;;;19.76;40.48;100468.17;102743;1291;62112;-82
2024/03/29 02:54:00;;;;;;;;;;;;;;;19.76;40.50;100470.67;102771;1294;62189;-79
2024/03/29 02:56:27;;;;;;;;;;;;;;;19.75;40.61;100470.15;102783;1291;62878;-80
2024/03/29 02:58:52;;;;;;;;;;;;;;;19.75;40.46;100474.08;102696;1291;62583;-80
2024/03/29 03:01:18;;;;;;;;;;;;;;;19.75;40.46;100468.54;102705;1291;62664;-80
2024/03/29 03:03:44;;;;;;;;;;;;;;;19.75;40.41;100471.42;102696;1294;62210;-81
2024/03/29 03:06:09;;;;;;;;;;;;;;;19.75;40.49;100473.22;102744;1291;62529;-80
2024/03/29 03:11:20;;;;;;;;;;;;;;;19.75;40.53;100473.95;102670;1291;73638;-80
2024/03/29 03:13:46;;;;;;;;;;;;;;;19.75;40.49;100478.75;102730;1297;63430;-83
2024/03/29 03:16:11;;;;;;;;;;;;;;;19.75;40.66;100476.42;102751;1291;62192;-80
2024/03/29 03:18:37;;;;;;;;;;;;;;;19.74;40.50;100476.99;102660;1291;62211;-80
2024/03/29 03:21:02;;;;;;;;;;;;;;;19.74;40.46;100481.27;102667;1291;62459;-82
2024/03/29 03:23:28;;;;;;;;;;;;;;;19.75;40.49;100486.08;102688;1292;63477;-81
2024/03/29 03:25:54;;;;;;;;;;;;;;;19.75;40.48;100491.63;102694;1291;75020;-80
2024/03/29 03:28:20;;;;;;;;;;;;;;;19.74;40.47;100495.38;102685;1292;63403;-80
2024/03/29 03:30:46;;;;;;;;;;;;;;;19.74;40.54;100503.62;102704;1291;62206;-80
2024/03/29 03:33:12;;;;;;;;;;;;;;;19.74;40.51;100503.27;102734;1294;62194;-81
2024/03/29 03:35:37;;;;;;;;;;;;;;;19.74;40.45;100506.48;102699;1291;62226;-80
2024/03/29 03:38:03;;;;;;;;;;;;;;;19.74;40.41;100511.47;102782;1294;62088;-80
2024/03/29 03:40:28;;;;;;;;;;;;;;;19.74;40.46;100521.65;102712;1294;62117;-80
2024/03/29 03:42:54;;;;;;;;;;;;;;;19.74;40.50;100526.13;102721;1291;62207;-80
2024/03/29 03:45:20;;;;;;;;;;;;;;;19.74;40.58;100527.91;102799;1291;63397;-81
2024/03/29 03:47:45;;;;;;;;;;;;;;;19.74;40.45;100527.04;102654;1290;62205;-80
2024/03/29 03:50:11;;;;;;;;;;;;;;;19.74;40.49;100525.05;102734;1294;62122;-80
2024/03/29 03:52:36;;;;;;;;;;;;;;;19.74;40.40;100529.01;102786;1290;62076;-81
2024/03/29 03:55:02;;;;;;;;;;;;;;;19.74;40.43;100537.77;102640;1291;62226;-82
2024/03/29 03:57:28;;;;;;;;;;;;;;;19.74;40.35;100539.53;102676;1297;62303;-81
2024/03/29 03:59:53;;;;;;;;;;;;;;;19.73;40.44;100538.85;102802;1291;62239;-80
2024/03/29 04:02:19;;;;;;;;;;;;;;;19.73;40.39;100545.11;102768;1292;62270;-81
2024/03/29 04:04:47;;;;;;;;;;;;;;;19.74;40.34;100549.38;102753;1290;62563;-80
2024/03/29 04:07:13;;;;;;;;;;;;;;;19.73;40.39;100551.55;102654;1295;62093;-80
2024/03/29 04:09:39;;;;;;;;;;;;;;;19.73;40.41;100552.09;102572;1295;62523;-80
2024/03/29 04:12:05;;;;;;;;;;;;;;;19.73;40.44;100556.89;102480;1295;62269;-80
2024/03/29 04:14:30;;;;;;;;;;;;;;;19.73;40.60;100557.45;102882;1294;63399;-80
2024/03/29 04:16:56;;;;;;;;;;;;;;;19.73;40.33;100565.13;102611;1295;62357;-82
2024/03/29 04:19:21;;;;;;;;;;;;;;;19.73;40.36;100567.26;102679;1294;62280;-80
2024/03/29 04:21:47;;;;;;;;;;;;;;;19.73;40.36;100567.63;102646;1295;63363;-80
2024/03/29 04:24:12;;;;;;;;;;;;;;;19.73;40.39;100566.02;102574;1297;62210;-79
2024/03/29 04:26:39;;;;;;;;;;;;;;;19.73;40.29;100566.75;102593;1295;62263;-81
2024/03/29 04:29:05;;;;;;;;;;;;;;;19.73;40.52;100573.16;102617;1294;63565;-83
2024/03/29 04:31:30;;;;;;;;;;;;;;;19.73;40.45;100572.83;102557;1295;62228;-80
2024/03/29 04:33:56;;;;;;;;;;;;;;;19.73;40.47;100582.08;102618;1299;62335;-82
2024/03/29 04:36:22;;;;;;;;;;;;;;;19.73;40.39;100583.88;102545;1293;75134;-82
2024/03/29 04:38:47;;;;;;;;;;;;;;;19.73;40.36;100587.82;102656;1297;62232;-80
2024/03/29 04:41:13;;;;;;;;;;;;;;;19.73;40.35;100589.43;102718;1291;62593;-80
2024/03/29 04:43:39;;;;;;;;;;;;;;;19.73;40.37;100595.30;102752;1291;62264;-80
2024/03/29 04:46:11;;;;;;;;;;;;;;;19.73;40.33;100605.67;102657;1292;62144;-80
2024/03/29 04:48:38;;;;;;;;;;;;;;;19.73;40.32;100608.35;102663;1294;62128;-80
2024/03/29 04:51:04;;;;;;;;;;;;;;;19.72;40.33;100618.02;102822;1291;62241;-80
2024/03/29 04:53:30;;;;;;;;;;;;;;;19.72;40.29;100625.86;102695;1291;62416;-81
2024/03/29 04:55:56;;;;;;;;;;;;;;;19.73;40.28;100626.38;102709;1291;62207;-82
2024/03/29 04:58:22;;;;;;;;;;;;;;;19.73;40.32;100633.36;102698;1297;62210;-81
2024/03/29 05:00:51;;;;;;;;;;;;;;;19.73;40.33;100640.85;102718;1291;62209;-82
2024/03/29 05:03:18;;;;;;;;;;;;;;;19.72;40.24;100646.61;102707;1292;72498;-79
2024/03/29 05:05:48;;;;;;;;;;;;;;;19.72;40.30;100653.92;102753;1290;76322;-81
2024/03/29 05:08:14;;;;;;;;;;;;;;;19.72;40.20;100653.40;102765;1292;62202;-80
2024/03/29 05:10:40;;;;;;;;;;;;;;;19.72;40.23;100661.23;102793;1292;62750;-79
2024/03/29 05:13:05;;;;;;;;;;;;;;;19.73;40.09;100659.40;102729;1296;62142;-79
2024/03/29 05:15:31;;;;;;;;;;;;;;;19.72;39.98;100662.64;102622;1292;62307;-79
2024/03/29 05:17:57;;;;;;;;;;;;;;;19.72;39.96;100666.92;102808;1294;62244;-81
2024/03/29 05:20:23;;;;;;;;;;;;;;;19.72;40.02;100666.78;102769;1290;63512;-79
2024/03/29 05:22:48;;;;;;;;;;;;;;;19.71;39.95;100669.17;102733;1291;62194;-80
2024/03/29 05:25:14;;;;;;;;;;;;;;;19.70;39.97;100672.98;102650;1291;62215;-81
2024/03/29 05:27:39;;;;;;;;;;;;;;;19.70;40.09;100675.15;102745;1294;62208;-80
2024/03/29 05:30:09;;;;;;;;;;;;;;;19.69;40.00;100677.56;102740;1291;62108;-80
2024/03/29 05:32:35;;;;;;;;;;;;;;;19.68;39.85;100681.57;102749;1292;62089;-80
2024/03/29 05:35:01;;;;;;;;;;;;;;;19.68;39.96;100684.08;103010;1292;63524;-78
2024/03/29 05:37:26;;;;;;;;;;;;;;;19.66;39.87;100686.46;103032;1291;62364;-79
2024/03/29 05:39:59;;;;;;;;;;;;;;;19.66;39.89;100689.73;103597;1290;62128;-78
2024/03/29 05:42:29;;;;;;;;;;;;;;;19.64;39.82;100689.67;104404;1291;61980;-78
2024/03/29 05:44:54;;;;;;;;;;;;;;;19.63;39.67;100692.96;103268;1291;71303;-79
2024/03/29 05:47:20;;;;;;;;;;;;;;;19.60;39.64;100694.54;103338;1291;62197;-79
2024/03/29 05:49:46;;;;;;;;;;;;;;;19.59;39.59;100696.05;103070;1291;62334;-80
2024/03/29 05:52:20;;;;;;;;;;;;;;;19.55;39.33;100692.92;103364;1294;63131;-79
2024/03/29 05:54:46;;;;;;;;;;;;;;;19.53;39.48;100692.66;103600;1290;71192;-79
2024/03/29 05:57:11;;;;;;;;;;;;;;;19.50;39.20;100689.13;103929;1291;62201;-81
2024/03/29 05:59:37;;;;;;;;;;;;;;;19.48;39.22;100692.84;104451;1290;62188;-81
2024/03/29 06:02:03;;;;;;;;;;;;;;;19.49;39.13;100694.77;104528;1290;62220;-81
2024/03/29 06:04:37;;;;;;;;;;;;;;;19.50;39.28;100703.42;104872;1293;73470;-80
2024/03/29 06:07:03;;;;;;;;;;;;;;;19.47;39.04;100700.94;104568;1290;76355;-81
2024/03/29 06:09:28;;;;;;;;;;;;;;;19.47;39.00;100692.52;104593;1291;62204;-81
2024/03/29 06:11:54;;;;;;;;;;;;;;;19.50;38.87;100698.63;104709;1292;62058;-81
2024/03/29 06:17:22;;;;;;;;;;;;;;;19.56;38.85;100705.51;106065;1289;75174;-81
2024/03/29 06:19:49;;;;;;;;;;;;;;;19.59;38.85;100707.07;105991;1290;59789;-79
2024/03/29 06:22:15;;;;;;;;;;;;;;;19.63;39.00;100710.98;106078;1290;60699;-81
2024/03/29 06:24:43;;;;;;;;;;;;;;;19.65;38.97;100705.46;106083;1290;74239;-80
2024/03/29 06:27:10;;;;;;;;;;;;;;;19.68;38.82;100711.36;106092;1290;75850;-80
2024/03/29 06:29:36;;;;;;;;;;;;;;;19.70;39.07;100706.37;104357;1291;62209;-81
2024/03/29 06:32:01;;;;;;;;;;;;;;;19.73;38.87;100699.94;105603;1296;61273;-81
2024/03/29 06:34:30;;;;;;;;;;;;;;;19.75;38.93;100701.78;103846;1289;62118;-80
2024/03/29 06:36:55;;;;;;;;;;;;;;;19.76;38.83;100704.39;103999;1291;63193;-80
2024/03/29 06:39:21;;;;;;;;;;;;;;;19.78;38.90;100710.18;104225;1289;62194;-80
2024/03/29 06:41:46;;;;;;;;;;;;;;;19.79;38.82;100709.77;104118;1292;62548;-81
2024/03/29 06:44:12;;;;;;;;;;;;;;;19.80;38.81;100712.34;104120;1290;64498;-79
2024/03/29 06:46:37;;;;;;;;;;;;;;;19.80;38.77;100715.36;104493;1291;62126;-81
2024/03/29 06:49:04;;;;;;;;;;;;;;;19.82;38.61;100718.88;104621;1291;75219;-80
2024/03/29 06:51:29;;;;;;;;;;;;;;;19.82;38.71;100713.31;104378;1291;62198;-80
2024/03/29 06:53:55;;;;;;;;;;;;;;;19.83;38.73;100713.42;104743;1290;62084;-81
2024/03/29 06:56:20;;;;;;;;;;;;;;;19.83;38.81;100717.91;104313;1289;62116;-79
2024/03/29 06:58:46;;;;;;;;;;;;;;;19.84;38.81;100719.45;104485;1290;62056;-80
2024/03/29 07:01:12;;;;;;;;;;;;;;;19.84;38.72;100722.09;104287;1291;62241;-80
2024/03/29 07:03:37;;;;;;;;;;;;;;;19.85;38.93;100721.31;104530;1290;62125;-79
2024/03/29 07:06:03;;;;;;;;;;;;;;;19.86;38.95;100724.05;104557;1290;62198;-80
2024/03/29 07:08:29;;;;;;;;;;;;;;;19.89;39.04;100722.65;104517;1291;62007;-79
2024/03/29 07:11:00;;;;;;;;;;;;;;;19.91;38.99;100727.14;104350;1291;62116;-79
2024/03/29 07:13:28;;;;;;;;;;;;;;;19.93;39.10;100726.13;104142;1291;62004;-78
2024/03/29 07:15:53;;;;;;;;;;;;;;;19.94;39.11;100726.59;104218;1293;62105;-78
2024/03/29 07:18:19;;;;;;;;;;;;;;;19.95;38.98;100725.98;104417;1291;61559;-79
2024/03/29 07:20:44;;;;;;;;;;;;;;;19.96;39.05;100725.41;104386;1290;62220;-80
2024/03/29 07:23:14;;;;;;;;;;;;;;;19.97;38.98;100726.45;104496;1291;62220;-79
2024/03/29 07:25:40;;;;;;;;;;;;;;;19.97;39.04;100725.89;104615;1291;62214;-80
2024/03/29 07:28:06;;;;;;;;;;;;;;;19.98;39.12;100728.70;104295;1292;61961;-79
2024/03/29 07:30:31;;;;;;;;;;;;;;;19.98;39.00;100730.45;104845;1294;62634;-79
2024/03/29 07:32:57;;;;;;;;;;;;;;;19.99;39.07;100742.74;104708;1291;62037;-78
2024/03/29 07:35:22;;;;;;;;;;;;;;;19.99;38.98;100745.73;104348;1290;62129;-79
2024/03/29 07:37:50;;;;;;;;;;;;;;;20.00;39.07;100753.02;104051;1291;62068;-79
2024/03/29 07:40:17;;;;;;;;;;;;;;;20.00;39.15;100757.65;104193;1290;72373;-79
2024/03/29 07:42:43;;;;;;;;;;;;;;;20.01;39.08;100755.09;104429;1290;62141;-79
2024/03/29 07:45:08;;;;;;;;;;;;;;;20.02;39.18;100757.54;104325;1290;62146;-78
2024/03/29 07:47:35;;;;;;;;;;;;;;;20.02;39.05;100753.58;104196;1290;62185;-79
2024/03/29 07:50:00;;;;;;;;;;;;;;;20.02;39.11;100747.88;103992;1291;62081;-78
2024/03/29 07:52:26;;;;;;;;;;;;;;;20.02;39.15;100743.02;104465;1289;62109;-79
2024/03/29 07:54:52;;;;;;;;;;;;;;;20.03;39.06;100741.04;104394;1291;62232;-78
2024/03/29 07:57:17;;;;;;;;;;;;;;;20.03;39.33;100741.55;104129;1290;62528;-78
2024/03/29 07:59:43;;;;;;;;;;;;;;;20.05;39.29;100733.20;104201;1290;62215;-78
2024/03/29 08:02:08;;;;;;;;;;;;;;;20.05;39.56;100731.89;104447;1291;60544;-78
2024/03/29 08:04:34;;;;;;;;;;;;;;;20.08;39.37;100727.45;104454;1294;62075;-79
2024/03/29 08:07:00;;;;;;;;;;;;;;;20.09;39.52;100726.98;104225;1291;62074;-78
2024/03/29 08:09:25;;;;;;;;;;;;;;;20.10;39.65;100729.25;104672;1290;60541;-79
2024/03/29 08:11:51;;;;;;;;;;;;;;;20.11;39.72;100734.57;104111;1292;62175;-78
2024/03/29 08:14:17;;;;;;;;;;;;;;;20.11;39.78;100732.60;104507;1291;59858;-79
2024/03/29 08:16:42;;;;;;;;;;;;;;;20.11;39.62;100724.37;104561;1290;62252;-78
2024/03/29 08:19:08;;;;;;;;;;;;;;;20.12;39.76;100722.21;104569;1291;62089;-78
2024/03/29 08:21:34;;;;;;;;;;;;;;;20.12;39.81;100723.09;104610;1290;62096;-79
2024/03/29 08:24:00;;;;;;;;;;;;;;;20.12;39.71;100726.81;104397;1291;62219;-78
2024/03/29 08:26:28;;;;;;;;;;;;;;;20.13;39.64;100728.94;104160;1291;71667;-81
2024/03/29 08:28:54;;;;;;;;;;;;;;;20.13;39.59;100731.39;104209;1291;76263;-79
2024/03/29 08:31:19;;;;;;;;;;;;;;;20.13;39.72;100731.42;104314;1291;60333;-79
2024/03/29 08:33:45;;;;;;;;;;;;;;;20.13;39.69;100730.84;103967;1291;62219;-79
2024/03/29 08:36:11;;;;;;;;;;;;;;;20.13;39.86;100724.07;103701;1291;60229;-79
2024/03/29 08:38:42;;;;;;;;;;;;;;;20.13;39.72;100730.14;103912;1297;62195;-79
2024/03/29 08:41:08;;;;;;;;;;;;;;;20.13;39.77;100733.71;103842;1292;62227;-78
2024/03/29 08:43:34;;;;;;;;;;;;;;;20.13;39.78;100729.96;103875;1291;62140;-78
2024/03/29 08:45:59;;;;;;;;;;;;;;;20.14;39.72;100726.86;103915;1297;62072;-79
2024/03/29 08:48:26;;;;;;;;;;;;;;;20.15;39.84;100726.48;103585;1291;62242;-79
2024/03/29 08:50:51;;;;;;;;;;;;;;;20.15;39.88;100732.52;103739;1292;63318;-79
2024/03/29 08:53:17;;;;;;;;;;;;;;;20.15;39.77;100734.98;103969;1292;62134;-80
2024/03/29 08:55:42;;;;;;;;;;;;;;;20.16;40.06;100734.07;104354;1292;62727;-78
2024/03/29 08:58:08;;;;;;;;;;;;;;;20.17;40.25;100732.20;104200;1291;62182;-80
2024/03/29 09:00:34;;;;;;;;;;;;;;;20.19;40.24;100721.70;103864;1294;62386;-80
2024/03/29 09:03:01;;;;;;;;;;;;;;;20.21;40.31;100714.07;104291;1291;62373;-79
2024/03/29 09:05:28;;;;;;;;;;;;;;;20.22;40.20;100708.11;103943;1291;62121;-80
2024/03/29 09:07:54;;;;;;;;;;;;;;;20.23;40.43;100715.14;104060;1291;63290;-79
2024/03/29 09:10:19;;;;;;;;;;;;;;;20.24;40.35;100721.33;103985;1290;62213;-80
2024/03/29 09:12:45;;;;;;;;;;;;;;;20.24;40.25;100727.75;103945;1289;62184;-79
2024/03/29 09:15:13;;;;;;;;;;;;;;;20.24;40.42;100730.08;104158;1290;60244;-79
2024/03/29 09:17:56;;;;;;;;;;;;;;;20.23;40.43;100723.18;103847;1291;72612;-79
2024/03/29 09:20:21;;;;;;;;;;;;;;;20.23;40.53;100715.52;104298;1290;62131;-81
2024/03/29 09:22:49;;;;;;;;;;;;;;;20.23;40.58;100713.72;104582;1291;62206;-81
2024/03/29 09:25:15;;;;;;;;;;;;;;;20.22;40.50;100704.34;104280;1291;62201;-79
2024/03/29 09:27:42;;;;;;;;;;;;;;;20.22;40.39;100701.31;104441;1294;62165;-80
2024/03/29 09:30:09;;;;;;;;;;;;;;;20.23;40.78;100704.83;104426;1291;62197;-79
2024/03/29 09:32:35;;;;;;;;;;;;;;;20.23;40.59;100708.89;104674;1290;62080;-80
2024/03/29 09:35:00;;;;;;;;;;;;;;;20.23;40.79;100704.61;104158;1291;62119;-80
2024/03/29 09:37:26;;;;;;;;;;;;;;;20.23;40.96;100697.25;104163;1291;61662;-80
2024/03/29 09:39:52;;;;;;;;;;;;;;;20.24;40.81;100691.16;104267;1292;62184;-81
2024/03/29 09:42:18;;;;;;;;;;;;;;;20.24;40.84;100698.84;104577;1291;62136;-80
2024/03/29 09:44:45;;;;;;;;;;;;;;;20.24;40.66;100694.36;104101;1290;62207;-79
2024/03/29 09:47:11;;;;;;;;;;;;;;;20.23;40.62;100689.75;104306;1290;61971;-80
2024/03/29 09:49:37;;;;;;;;;;;;;;;20.23;40.53;100690.52;104133;1291;62078;-80
2024/03/29 09:52:03;;;;;;;;;;;;;;;20.23;40.65;100693.33;104694;1294;62161;-79
2024/03/29 09:54:28;;;;;;;;;;;;;;;20.25;40.65;100689.46;104680;1292;61433;-80
2024/03/29 09:56:57;;;;;;;;;;;;;;;20.31;40.48;100683.02;104820;1291;62181;-80
2024/03/29 09:59:23;;;;;;;;;;;;;;;20.37;40.66;100688.81;104738;1291;72640;-80
2024/03/29 10:01:49;;;;;;;;;;;;;;;20.42;40.62;100688.29;104541;1291;62077;-80
2024/03/29 10:04:15;;;;;;;;;;;;;;;20.46;40.40;100689.42;104729;1292;62105;-81
2024/03/29 10:06:43;;;;;;;;;;;;;;;20.49;40.16;100680.09;104341;1289;62243;-80
2024/03/29 10:09:10;;;;;;;;;;;;;;;20.53;39.96;100679.15;104597;1293;72601;-80
2024/03/29 10:11:37;;;;;;;;;;;;;;;20.56;39.92;100684.12;104990;1290;75107;-81
2024/03/29 10:14:03;;;;;;;;;;;;;;;20.57;39.71;100690.63;104864;1291;61038;-80
2024/03/29 10:16:32;;;;;;;;;;;;;;;20.56;39.70;100695.52;104702;1297;62110;-80
2024/03/29 10:18:58;;;;;;;;;;;;;;;20.55;39.61;100692.77;104893;1294;72625;-80
2024/03/29 10:21:26;;;;;;;;;;;;;;;20.53;39.80;100690.54;104675;1292;59974;-80
2024/03/29 10:23:52;;;;;;;;;;;;;;;20.53;39.77;100697.86;104383;1292;62080;-80
2024/03/29 10:26:18;;;;;;;;;;;;;;;20.54;39.91;100696.05;104294;1292;62137;-80
2024/03/29 10:28:43;;;;;;;;;;;;;;;20.55;39.92;100695.28;104413;1294;62199;-81
2024/03/29 10:31:09;;;;;;;;;;;;;;;20.55;40.07;100692.96;104412;1292;62078;-80
2024/03/29 10:33:34;;;;;;;;;;;;;;;20.55;40.07;100696.19;104470;1290;61998;-81
2024/03/29 10:36:01;;;;;;;;;;;;;;;20.53;39.96;100689.15;104579;1294;62115;-81
2024/03/29 10:38:27;;;;;;;;;;;;;;;20.51;39.91;100683.89;104828;1292;62110;-80
2024/03/29 10:40:53;;;;;;;;;;;;;;;20.50;39.95;100680.61;104492;1291;62185;-80
2024/03/29 10:43:19;;;;;;;;;;;;;;;20.48;39.81;100690.21;104550;1291;62072;-80
2024/03/29 10:45:46;;;;;;;;;;;;;;;20.47;39.97;100688.14;104701;1291;62236;-80
2024/03/29 10:48:12;;;;;;;;;;;;;;;20.48;40.01;100681.80;104493;1297;62159;-81
2024/03/29 10:50:39;;;;;;;;;;;;;;;20.49;40.00;100680.67;104704;1291;62214;-84
2024/03/29 10:53:05;;;;;;;;;;;;;;;20.50;39.92;100685.43;104302;1288;62175;-82
2024/03/29 10:55:34;;;;;;;;;;;;;;;20.51;39.52;100686.96;104309;1292;62216;-84
2024/03/29 10:58:05;;;;;;;;;;;;;;;20.52;39.68;100690.81;104432;1292;62031;-82
2024/03/29 11:00:51;;;;;;;;;;;;;;;20.53;39.72;100696.84;104505;1294;72084;-80
2024/03/29 11:03:21;;;;;;;;;;;;;;;20.52;39.78;100698.85;104857;1292;75431;-81
2024/03/29 11:05:47;;;;;;;;;;;;;;;20.52;39.70;100697.41;104965;1292;60624;-79
2024/03/29 11:08:15;;;;;;;;;;;;;;;20.55;39.92;100689.72;106066;1294;60144;-79
2024/03/29 11:10:45;;;;;;;;;;;;;;;20.57;39.86;100702.05;106117;1290;71945;-79
2024/03/29 11:13:16;;;;;;;;;;;;;;;20.59;39.68;100705.54;106089;1290;74892;-78
2024/03/29 11:15:42;;;;;;;;;;;;;;;20.61;39.62;100707.50;104704;1289;62223;-79
2024/03/29 11:18:08;;;;;;;;;;;;;;;20.62;39.44;100706.95;104653;1290;62176;-81
2024/03/29 11:20:34;;;;;;;;;;;;;;;20.62;39.50;100704.80;104545;1295;61554;-80
2024/03/29 11:23:05;;;;;;;;;;;;;;;20.62;39.30;100703.77;104884;1292;62208;-80
2024/03/29 11:25:44;;;;;;;;;;;;;;;20.63;39.42;100705.27;105968;1290;60577;-80
2024/03/29 11:28:13;;;;;;;;;;;;;;;20.66;39.50;100703.57;104450;1291;62010;-80
2024/03/29 11:30:40;;;;;;;;;;;;;;;20.72;39.49;100701.08;104430;1291;72624;-80
2024/03/29 11:33:06;;;;;;;;;;;;;;;20.76;39.44;100695.08;105394;1289;75295;-81
2024/03/29 11:35:33;;;;;;;;;;;;;;;20.78;39.39;100695.62;104226;1292;62268;-81
2024/03/29 11:38:01;;;;;;;;;;;;;;;20.80;39.28;100693.73;104363;1291;62211;-80
2024/03/29 11:40:30;;;;;;;;;;;;;;;20.78;39.04;100687.06;104348;1288;72510;-81
2024/03/29 11:42:56;;;;;;;;;;;;;;;20.76;39.09;100686.48;104586;1294;78250;-81
2024/03/29 11:45:24;;;;;;;;;;;;;;;20.74;38.93;100693.42;104471;1294;62145;-80
2024/03/29 11:47:49;;;;;;;;;;;;;;;20.72;38.83;100699.65;105625;1289;61887;-80
2024/03/29 11:50:15;;;;;;;;;;;;;;;20.70;38.97;100698.67;104250;1290;62343;-80
2024/03/29 11:52:40;;;;;;;;;;;;;;;20.70;38.87;100700.82;104600;1292;60577;-80
2024/03/29 11:55:07;;;;;;;;;;;;;;;20.70;38.87;100710.09;104742;1291;62122;-82
2024/03/29 11:57:33;;;;;;;;;;;;;;;20.73;38.91;100712.27;104807;1289;60520;-80
2024/03/29 11:59:58;;;;;;;;;;;;;;;20.75;38.90;100711.75;105150;1292;62132;-82
2024/03/29 12:02:24;;;;;;;;;;;;;;;20.79;38.83;100706.31;105607;1294;60175;-81
2024/03/29 12:04:50;;;;;;;;;;;;;;;20.83;38.83;100712.77;105215;1290;74917;-82
2024/03/29 12:07:16;;;;;;;;;;;;;;;20.87;38.77;100713.06;105260;1290;60954;-80
2024/03/29 12:09:43;;;;;;;;;;;;;;;20.91;38.93;100706.84;105473;1291;60496;-80
2024/03/29 12:12:09;;;;;;;;;;;;;;;20.93;38.98;100714.92;105250;1292;60185;-80
2024/03/29 12:14:37;;;;;;;;;;;;;;;20.95;38.96;100711.95;105089;1294;60497;-81
2024/03/29 12:17:11;;;;;;;;;;;;;;;20.98;38.86;100706.92;105187;1291;59689;-80
2024/03/29 12:19:39;;;;;;;;;;;;;;;20.98;39.05;100707.08;105038;1293;62120;-81
2024/03/29 12:22:05;;;;;;;;;;;;;;;20.99;38.92;100709.52;105055;1289;72471;-80
2024/03/29 12:24:30;;;;;;;;;;;;;;;20.99;38.88;100704.31;104978;1295;61427;-81
2024/03/29 12:26:56;;;;;;;;;;;;;;;21.00;38.95;100700.52;104961;1294;62084;-80